Airfield :
LOGIN :

Register | Disclaimer

   EN    FR    IT 

 










Legend :    VFR   Marginal VFR   IFR   Intensive IFR   Very Intensive IFR
Visi :
Ceiling :
>= 8 km
>= 3000ft
5 to 8 km
1000 to 3000 ft
1500m to 5 km
500 to 1000 ft
800 to 1500m
200 to 500 ft
< 800m
< 200 ft
Symbols :   Thunderstorms  Fog  Heavy snow  Heavy precipitations  Wind > 20 kt
SIGMETs :     Misc.  Thunderstorms  Icing  Turbulence  Mountain Waves  Volcanic Ashes






- Airport Elevation : 288 ft
- IATA code : BZZ


EGVN - RAF Brize Norton

CURRENT METAR :
  • 052320Z 30001KT CAVOK M02/M03 Q1045 NOSIG RMK BLU BLU

EXPIRED METARs :
  • 052250Z 28002KT CAVOK M01/M03 Q1045 NOSIG RMK BLU BLU
  • 052220Z 03002KT CAVOK M01/M03 Q1045 NOSIG RMK BLU BLU
  • 052120Z 00000KT CAVOK M00/M02 Q1045 NOSIG RMK BLU BLU
  • 052050Z 05002KT CAVOK 00/M02 Q1045 NOSIG RMK BLU BLU
  • 052020Z 08001KT CAVOK 00/M02 Q1046 NOSIG RMK BLU BLU

TAF TAF EGVN
Valid from the 05 at 21:00 until the 06 at 21:00 UTC


051945Z 0521/0621 VRB03KT CAVOK
PROB30 0522/0602 5000 BR
PROB40 0602/0611 4000 BR
PROB30 0603/0610 1500 BR MIFG



MET'MAP, your aeronautical weather chart ! - Copyright ORBIFLY December 2007 - Disclaimer

ORBIFLY MET'MAP TEAM :

Programming & Development : Alexandra Zaïnal
Original concept : Baudouin d'Aumeries
Technical & hardware support : Manuel Goepfert
Assistance : Marc-Olivier Méhu




SOURCES & CREDITS :

   NOAA